Time;durP1;ratioP1;P1;durP2;ratioP2;P2;SDS_P1;SDS_P2;PMS_P1;PMS_P2;Temp;Humidity;BMP_temperature;BMP_pressure;BME280_temperature;BME280_humidity;BME280_pressure;Samples;Min_cycle;Max_cycle;Signal;HPM_P1;HPM_P2
2022/07/13 00:00:47;;;;;;;5.75;2.95;;;;;;;20.94;56.94;101067.28;4926191;28;20136;-73
2022/07/13 00:03:13;;;;;;;6.20;2.70;;;;;;;20.59;57.11;101022.53;4928904;28;20062;-73
2022/07/13 00:05:40;;;;;;;5.18;2.80;;;;;;;20.70;57.22;101042.34;4932578;28;20139;-73
2022/07/13 00:08:07;;;;;;;6.32;3.00;;;;;;;20.81;57.31;101055.78;4928770;28;20051;-74
2022/07/13 00:10:34;;;;;;;6.40;3.05;;;;;;;20.74;57.30;101052.75;4932897;28;20106;-73
2022/07/13 00:13:01;;;;;;;7.10;2.88;;;;;;;20.66;57.54;101045.25;4932541;28;20651;-73
2022/07/13 00:15:27;;;;;;;7.07;3.08;;;;;;;20.73;57.66;101045.66;4928773;28;20051;-75
2022/07/13 00:17:54;;;;;;;5.70;2.53;;;;;;;20.74;57.44;101041.97;4924669;28;20071;-73
2022/07/13 00:20:21;;;;;;;5.60;2.75;;;;;;;20.74;57.41;101050.06;4943878;28;20059;-73
2022/07/13 00:22:48;;;;;;;6.50;3.08;;;;;;;20.71;57.57;101047.59;4933506;28;20135;-73
2022/07/13 00:25:15;;;;;;;6.60;3.63;;;;;;;20.77;57.57;101046.28;4933376;28;20094;-73
2022/07/13 00:27:41;;;;;;;7.20;2.70;;;;;;;20.81;57.50;101055.78;4942523;28;20056;-74
2022/07/13 00:30:09;;;;;;;6.53;2.60;;;;;;;20.75;57.72;101040.16;4932456;28;20059;-74
2022/07/13 00:32:35;;;;;;;5.88;3.10;;;;;;;20.73;57.63;101044.78;4928791;28;20527;-74
2022/07/13 00:35:02;;;;;;;9.13;2.88;;;;;;;20.67;58.08;101043.44;4930033;28;20055;-74
2022/07/13 00:37:29;;;;;;;5.07;2.58;;;;;;;20.53;58.61;101025.69;4930617;28;20048;-73
2022/07/13 00:39:56;;;;;;;3.97;2.80;;;;;;;20.53;58.41;101012.22;4929508;28;20063;-74
2022/07/13 00:42:23;;;;;;;6.55;2.70;;;;;;;20.65;58.50;101018.47;4929493;28;20515;-74
2022/07/13 00:44:49;;;;;;;7.13;3.03;;;;;;;20.72;58.06;101013.47;4932564;28;20110;-73
2022/07/13 00:47:17;;;;;;;4.63;2.90;;;;;;;20.83;57.43;101018.84;4923525;29;20044;-73
2022/07/13 00:49:44;;;;;;;4.70;2.88;;;;;;;20.73;57.00;100993.66;4920291;28;20067;-73
2022/07/13 00:52:11;;;;;;;3.85;2.92;;;;;;;20.88;56.79;101012.13;4928178;28;20055;-74
2022/07/13 00:54:41;;;;;;;5.28;2.70;;;;;;;20.91;56.67;101006.50;4929445;28;20055;-73
2022/07/13 00:57:11;;;;;;;3.80;2.78;;;;;;;20.85;56.53;100992.66;4926346;28;20056;-74
2022/07/13 00:59:39;;;;;;;4.85;2.85;;;;;;;20.94;56.51;101005.38;4927881;28;20107;-74
2022/07/13 01:02:06;;;;;;;6.95;3.13;;;;;;;20.93;56.69;101006.38;4931891;28;20055;-74
2022/07/13 01:04:33;;;;;;;5.78;3.28;;;;;;;20.90;56.49;101001.22;4929222;28;20079;-74
2022/07/13 01:07:00;;;;;;;7.25;3.10;;;;;;;20.89;56.47;101003.06;4927050;28;20053;-75
2022/07/13 01:09:27;;;;;;;5.20;2.58;;;;;;;20.90;56.94;101001.22;4926747;29;21201;-75
2022/07/13 01:11:54;;;;;;;3.28;2.42;;;;;;;20.93;56.65;100995.59;4927804;28;20044;-75
2022/07/13 01:14:21;;;;;;;4.35;2.80;;;;;;;20.85;56.74;100977.38;4928648;28;20048;-75
2022/07/13 01:16:48;;;;;;;3.83;2.53;;;;;;;20.90;56.55;100977.00;4926357;29;20503;-73
2022/07/13 01:19:15;;;;;;;5.30;2.78;;;;;;;21.00;56.76;100986.91;4931418;28;20118;-73
2022/07/13 01:21:44;;;;;;;5.72;3.00;;;;;;;21.01;56.42;100985.06;4924377;29;20543;-73
2022/07/13 01:24:12;;;;;;;4.18;2.70;;;;;;;21.01;56.35;100990.44;4926801;28;20463;-73
2022/07/13 01:26:39;;;;;;;7.28;3.08;;;;;;;20.98;56.26;100993.38;4936611;28;20052;-73
2022/07/13 01:29:07;;;;;;;5.40;3.25;;;;;;;20.94;56.80;100989.22;4931792;28;20050;-72
2022/07/13 01:31:38;;;;;;;6.47;3.20;;;;;;;20.91;56.76;100993.03;4939723;28;20746;-73
2022/07/13 01:34:07;;;;;;;5.72;2.67;;;;;;;20.83;56.66;100994.63;4937153;28;20051;-74
2022/07/13 01:36:37;;;;;;;6.82;3.03;;;;;;;20.82;56.82;100999.16;4929442;28;20048;-74
2022/07/13 01:39:05;;;;;;;6.13;3.13;;;;;;;20.75;57.17;101002.47;4933760;28;20163;-75
2022/07/13 01:41:32;;;;;;;6.07;3.20;;;;;;;20.57;58.45;100985.94;4931017;28;20111;-75
2022/07/13 01:44:08;;;;;;;6.32;2.70;;;;;;;20.57;59.29;101011.00;4934691;28;20420;-74
2022/07/13 01:46:36;;;;;;;7.28;3.05;;;;;;;20.45;59.08;101014.69;4931228;28;20044;-74
2022/07/13 01:49:03;;;;;;;4.03;2.40;;;;;;;20.30;59.44;101013.16;4931922;28;20488;-74
2022/07/13 01:51:29;;;;;;;3.75;2.60;;;;;;;20.14;59.89;101001.88;4932037;28;20468;-74
2022/07/13 01:53:56;;;;;;;4.45;2.22;;;;;;;20.10;60.31;101011.13;4934891;28;20111;-74
2022/07/13 01:56:23;;;;;;;4.60;2.80;;;;;;;20.02;60.45;101003.66;4931352;28;20047;-75
2022/07/13 01:58:49;;;;;;;6.65;2.92;;;;;;;19.96;61.55;101012.19;4930134;28;20052;-73
2022/07/13 02:01:16;;;;;;;5.43;2.47;;;;;;;19.85;61.57;101013.00;4928538;28;20044;-73
2022/07/13 02:03:43;;;;;;;4.70;2.33;;;;;;;19.85;61.66;101004.06;4931697;28;20051;-73
2022/07/13 02:06:10;;;;;;;4.65;2.47;;;;;;;19.83;61.47;100998.81;4931540;28;20383;-76
2022/07/13 02:08:38;;;;;;;4.65;2.42;;;;;;;19.70;61.45;100976.53;4932620;28;20146;-74
2022/07/13 02:11:04;;;;;;;5.45;2.53;;;;;;;19.70;61.60;100971.16;4932817;28;20063;-73
2022/07/13 02:13:31;;;;;;;5.40;2.67;;;;;;;19.80;61.88;100977.56;4931329;29;20107;-74
2022/07/13 02:15:58;;;;;;;5.50;2.50;;;;;;;19.74;61.59;100980.72;4931407;28;20130;-74
2022/07/13 02:18:27;;;;;;;5.90;2.67;;;;;;;19.75;62.03;100968.13;4939680;28;20107;-74
2022/07/13 02:20:54;;;;;;;3.40;2.33;;;;;;;19.81;61.72;100984.66;4928405;28;20056;-73
2022/07/13 02:23:21;;;;;;;5.55;2.92;;;;;;;19.81;60.84;100973.91;4935963;28;20054;-74
2022/07/13 02:25:47;;;;;;;5.43;3.03;;;;;;;19.84;60.69;100975.47;4939180;28;20067;-73
2022/07/13 02:28:14;;;;;;;4.60;3.35;;;;;;;19.84;60.44;100973.66;4933526;28;20067;-73
2022/07/13 02:30:41;;;;;;;4.05;2.80;;;;;;;19.85;60.15;100966.44;4931522;28;20109;-73
2022/07/13 02:33:08;;;;;;;4.20;3.00;;;;;;;19.88;59.51;100961.69;4930551;28;20055;-73
2022/07/13 02:35:34;;;;;;;3.97;3.00;;;;;;;19.87;59.74;100959.97;4932377;28;20480;-74
2022/07/13 02:38:01;;;;;;;4.65;2.80;;;;;;;19.91;59.52;100971.38;4934318;28;20055;-73
2022/07/13 02:40:28;;;;;;;4.90;3.25;;;;;;;19.89;59.71;100982.22;4931429;28;20059;-74
2022/07/13 02:42:54;;;;;;;3.63;3.05;;;;;;;19.83;59.91;100974.63;4931971;28;20056;-74
2022/07/13 02:45:21;;;;;;;6.57;3.17;;;;;;;19.67;59.60;100951.75;4933923;28;20043;-73
2022/07/13 02:47:49;;;;;;;5.72;2.97;;;;;;;19.82;59.86;100975.63;4931622;28;20060;-74
2022/07/13 02:50:16;;;;;;;3.03;2.63;;;;;;;19.78;59.65;100962.53;4929555;28;20130;-74
2022/07/13 02:52:43;;;;;;;4.15;2.80;;;;;;;19.75;59.67;100960.94;4931320;28;20048;-73
2022/07/13 02:55:10;;;;;;;5.60;2.80;;;;;;;19.79;59.62;100954.34;4931985;28;20048;-74
2022/07/13 02:57:36;;;;;;;4.28;2.85;;;;;;;19.78;59.22;100957.16;4932894;28;20058;-74
2022/07/13 03:00:06;;;;;;;4.07;2.92;;;;;;;19.81;59.39;100954.25;4933506;28;20067;-74
2022/07/13 03:02:32;;;;;;;4.82;2.63;;;;;;;19.76;59.63;100946.53;4928771;28;20548;-74
2022/07/13 03:05:00;;;;;;;4.50;3.22;;;;;;;19.78;59.27;100952.66;4931441;29;20054;-73
2022/07/13 03:07:27;;;;;;;4.43;3.25;;;;;;;19.79;59.60;100959.72;4934902;28;20048;-73
2022/07/13 03:09:54;;;;;;;5.07;3.33;;;;;;;19.78;60.11;100965.22;4929861;28;20047;-73
2022/07/13 03:12:23;;;;;;;3.53;2.70;;;;;;;19.67;59.87;100949.06;4930164;28;20494;-72
2022/07/13 03:14:50;;;;;;;4.72;2.90;;;;;;;19.77;60.09;100966.19;4929770;28;20054;-74
2022/07/13 03:17:16;;;;;;;4.63;3.33;;;;;;;19.76;59.71;100959.09;4931698;28;20244;-72
2022/07/13 03:19:43;;;;;;;5.72;2.78;;;;;;;19.78;59.44;100958.03;4932577;28;20040;-73
2022/07/13 03:22:10;;;;;;;4.43;2.65;;;;;;;19.85;59.48;100963.75;4931623;28;20138;-73
2022/07/13 03:24:37;;;;;;;6.90;2.65;;;;;;;19.83;59.59;100950.44;4930974;28;20051;-73
2022/07/13 03:27:03;;;;;;;4.03;2.58;;;;;;;19.86;59.25;100950.22;4930355;28;20548;-74
2022/07/13 03:29:30;;;;;;;4.60;2.80;;;;;;;19.91;58.69;100964.16;4924504;28;20047;-73
2022/07/13 03:31:59;;;;;;;5.40;2.80;;;;;;;19.85;58.40;100963.75;4932432;28;20047;-73
2022/07/13 03:34:26;;;;;;;4.32;2.63;;;;;;;19.80;58.68;100961.44;4929798;28;20044;-73
2022/07/13 03:36:53;;;;;;;5.32;2.80;;;;;;;19.84;58.81;100962.91;4928224;28;20048;-73
2022/07/13 03:39:19;;;;;;;4.30;2.50;;;;;;;19.79;58.64;100948.13;4932155;28;20059;-73
2022/07/13 03:41:46;;;;;;;6.57;2.90;;;;;;;19.87;58.74;100968.03;4929249;28;20147;-73
2022/07/13 03:44:13;;;;;;;4.07;2.70;;;;;;;19.72;59.03;100945.03;4930991;29;20060;-72
2022/07/13 03:46:40;;;;;;;3.08;2.60;;;;;;;19.86;59.30;100960.97;4929197;28;20047;-73
2022/07/13 03:49:08;;;;;;;3.88;2.90;;;;;;;19.86;59.25;100955.59;4929711;28;20055;-75
2022/07/13 03:51:36;;;;;;;4.47;2.55;;;;;;;19.92;59.00;100967.72;4924706;28;20070;-73
2022/07/13 03:54:03;;;;;;;4.88;2.92;;;;;;;19.94;58.78;100963.06;4930159;28;20048;-73
2022/07/13 03:56:30;;;;;;;6.95;3.20;;;;;;;19.80;58.96;100939.94;4929536;28;20047;-73
2022/07/13 03:58:56;;;;;;;6.45;2.95;;;;;;;19.95;59.75;100978.22;4926749;28;20048;-75
2022/07/13 04:01:23;;;;;;;4.22;2.92;;;;;;;19.88;60.09;100959.00;4929525;28;20074;-75
2022/07/13 04:03:51;;;;;;;4.53;2.50;;;;;;;19.90;60.73;100970.50;4927329;28;20587;-75
2022/07/13 04:06:18;;;;;;;4.45;2.60;;;;;;;19.92;60.61;100956.94;4929777;28;20055;-75
2022/07/13 04:08:46;;;;;;;2.83;2.40;;;;;;;19.90;60.43;100954.38;4926587;28;20040;-74
2022/07/13 04:11:14;;;;;;;7.15;2.45;;;;;;;19.94;60.13;100950.50;4926642;28;20055;-74
2022/07/13 04:13:42;;;;;;;4.60;3.17;;;;;;;19.96;59.44;100945.00;4932256;29;20051;-75
2022/07/13 04:16:08;;;;;;;4.30;2.88;;;;;;;19.95;59.58;100943.28;4927599;28;20057;-75
2022/07/13 04:18:36;;;;;;;4.70;2.65;;;;;;;19.92;59.45;100939.00;4926057;28;20052;-75
2022/07/13 04:21:03;;;;;;;8.27;3.13;;;;;;;20.01;59.45;100958.91;4929206;29;20734;-75
2022/07/13 04:23:31;;;;;;;3.85;2.58;;;;;;;19.99;60.02;100962.72;4929732;28;20388;-74
2022/07/13 04:25:58;;;;;;;5.68;2.88;;;;;;;20.00;59.90;100959.03;4930503;28;20115;-75
2022/07/13 04:28:25;;;;;;;4.40;2.90;;;;;;;20.01;59.39;100972.34;4931758;28;20048;-74
2022/07/13 04:30:52;;;;;;;4.88;2.83;;;;;;;19.90;59.89;100957.06;4929043;28;20039;-74
2022/07/13 04:33:18;;;;;;;4.65;2.40;;;;;;;19.95;59.85;100971.03;4933608;28;20516;-74
2022/07/13 04:35:45;;;;;;;8.07;3.22;;;;;;;19.86;60.26;100947.53;4927681;28;20457;-74
2022/07/13 04:38:12;;;;;;;5.55;3.08;;;;;;;19.88;60.42;100942.88;4919585;28;20060;-74
2022/07/13 04:40:39;;;;;;;7.03;3.28;;;;;;;20.00;60.65;100964.41;4931778;28;20118;-73
2022/07/13 04:43:06;;;;;;;4.90;2.95;;;;;;;19.93;61.02;100934.47;4930766;28;20083;-73
2022/07/13 04:45:33;;;;;;;5.35;3.35;;;;;;;20.08;60.72;100953.94;4929735;28;20060;-73
2022/07/13 04:48:00;;;;;;;5.95;2.90;;;;;;;20.15;60.56;100957.84;4934532;29;20048;-73
2022/07/13 04:50:27;;;;;;;8.65;3.17;;;;;;;20.07;60.77;100925.34;4922284;28;20487;-74
2022/07/13 04:52:53;;;;;;;7.22;3.05;;;;;;;20.29;60.65;100953.13;4924052;28;20066;-73
2022/07/13 04:55:21;;;;;;;6.07;3.42;;;;;;;20.32;60.52;100954.69;4927461;28;20099;-75
2022/07/13 04:57:47;;;;;;;7.88;3.08;;;;;;;20.30;60.08;100944.03;4926705;28;20058;-74
2022/07/13 05:00:16;;;;;;;9.20;3.25;;;;;;;20.36;60.51;100942.75;4928923;28;20652;-73
2022/07/13 05:02:43;;;;;;;10.80;2.85;;;;;;;20.37;60.14;100927.47;4934247;28;20051;-74
2022/07/13 05:05:09;;;;;;;5.68;3.03;;;;;;;20.60;60.07;100940.81;4930177;28;20559;-73
2022/07/13 05:07:36;;;;;;;4.43;2.60;;;;;;;20.73;59.79;100937.13;4931657;28;20047;-74
2022/07/13 05:10:06;;;;;;;4.53;2.63;;;;;;;20.83;58.24;100941.63;4927988;28;20062;-73
2022/07/13 05:12:43;;;;;;;13.13;2.63;;;;;;;20.96;57.35;100950.41;4927849;28;20054;-74
2022/07/13 05:15:12;;;;;;;3.28;2.40;;;;;;;21.01;56.84;100948.22;4926580;28;20520;-75
2022/07/13 05:17:38;;;;;;;4.65;2.70;;;;;;;20.81;56.89;100908.59;4929062;28;20047;-75
2022/07/13 05:20:05;;;;;;;3.10;2.40;;;;;;;21.19;56.59;100956.66;4929640;28;20056;-73
2022/07/13 05:22:32;;;;;;;5.45;3.00;;;;;;;21.25;56.90;100953.44;4928400;28;20055;-74
2022/07/13 05:24:59;;;;;;;7.35;2.60;;;;;;;21.37;56.18;100956.97;4926933;28;20112;-74
2022/07/13 05:27:26;;;;;;;4.57;2.92;;;;;;;21.42;55.71;100948.50;4931536;28;20056;-73
2022/07/13 05:29:53;;;;;;;5.50;2.50;;;;;;;21.52;56.02;100957.53;4930269;28;20062;-74
2022/07/13 05:32:20;;;;;;;10.70;3.05;;;;;;;21.45;56.69;100943.72;4928799;28;20078;-72
2022/07/13 05:34:46;;;;;;;7.53;2.85;;;;;;;21.48;56.48;100946.16;4925868;28;20051;-73
2022/07/13 05:37:14;;;;;;;5.03;2.55;;;;;;;21.42;56.52;100933.19;4926886;28;20055;-72
2022/07/13 05:39:45;;;;;;;5.88;3.00;;;;;;;21.35;56.70;100922.09;4927663;28;20504;-72
2022/07/13 05:42:13;;;;;;;6.18;2.80;;;;;;;21.39;56.61;100938.00;4926586;28;20107;-72
2022/07/13 05:44:40;;;;;;;9.98;3.22;;;;;;;21.33;56.45;100940.22;4927533;28;20144;-72
2022/07/13 05:47:07;;;;;;;8.30;2.63;;;;;;;21.40;56.33;100948.66;4924881;28;20135;-73
2022/07/13 05:49:34;;;;;;;5.40;3.17;;;;;;;21.49;56.12;100958.66;4922429;28;20040;-75
2022/07/13 05:52:00;;;;;;;6.75;3.22;;;;;;;21.51;56.30;100959.38;4928550;28;20048;-74
2022/07/13 05:54:27;;;;;;;8.15;3.63;;;;;;;21.47;56.52;100949.81;4929811;28;20055;-73
2022/07/13 05:57:11;;;;;;;7.13;3.20;;;;;;;21.57;56.66;100952.59;4920927;28;20481;-73
2022/07/13 05:59:39;;;;;;;11.15;3.50;;;;;;;21.61;56.20;100959.44;4924429;28;20089;-76
2022/07/13 06:02:06;;;;;;;10.23;3.30;;;;;;;21.67;55.99;100964.34;4921035;28;20062;-74
2022/07/13 06:04:33;;;;;;;3.78;2.88;;;;;;;21.61;55.93;100941.44;4922871;28;20052;-73
2022/07/13 06:07:00;;;;;;;5.55;3.40;;;;;;;21.77;55.89;100965.25;4930019;28;20051;-74
2022/07/13 06:09:27;;;;;;;6.47;3.08;;;;;;;21.82;55.77;100972.97;4925323;28;20064;-74
2022/07/13 06:11:54;;;;;;;7.35;3.40;;;;;;;21.95;56.32;100958.31;4925864;28;20118;-74
2022/07/13 06:14:21;;;;;;;4.18;2.75;;;;;;;22.21;55.13;100961.47;4926813;28;20047;-71
2022/07/13 06:16:48;;;;;;;10.40;3.75;;;;;;;22.51;54.39;100957.94;4918991;29;20047;-71
2022/07/13 06:19:15;;;;;;;7.15;3.30;;;;;;;22.74;53.20;100950.50;4922489;28;20050;-72
2022/07/13 06:21:41;;;;;;;8.55;2.97;;;;;;;22.96;52.94;100957.59;4923956;28;20051;-71
2022/07/13 06:24:08;;;;;;;6.68;2.67;;;;;;;23.14;52.11;100955.91;4926690;28;20052;-71
2022/07/13 06:26:35;;;;;;;7.95;3.13;;;;;;;23.18;51.78;100949.22;4925410;28;20051;-72
2022/07/13 06:29:02;;;;;;;12.48;3.10;;;;;;;23.08;51.99;100948.38;4925101;28;20075;-73
2022/07/13 06:31:28;;;;;;;7.18;3.10;;;;;;;23.24;51.99;100947.84;4919111;29;20098;-71
2022/07/13 06:33:56;;;;;;;7.10;3.25;;;;;;;23.32;51.49;100946.13;4921540;28;20108;-71
2022/07/13 06:36:22;;;;;;;6.75;3.15;;;;;;;23.37;51.84;100946.56;4921989;28;20078;-72
2022/07/13 06:38:49;;;;;;;6.22;2.70;;;;;;;23.43;51.58;100947.84;4914795;28;20052;-72
2022/07/13 06:41:17;;;;;;;7.63;2.90;;;;;;;23.51;50.87;100949.84;4918224;28;20047;-72
2022/07/13 06:43:44;;;;;;;9.18;3.03;;;;;;;23.61;50.83;100954.28;4922271;28;20048;-71
2022/07/13 06:46:11;;;;;;;9.80;3.00;;;;;;;23.38;50.42;100940.16;4922811;29;20071;-71
2022/07/13 06:48:38;;;;;;;5.50;2.95;;;;;;;23.55;51.24;100948.59;4923176;28;20507;-72
2022/07/13 06:51:06;;;;;;;5.28;2.95;;;;;;;23.71;50.45;100921.84;4925699;29;20082;-72
2022/07/13 06:53:33;;;;;;;4.47;2.10;;;;;;;24.14;49.39;100934.84;4919775;28;20055;-72
2022/07/13 06:55:59;;;;;;;6.95;2.47;;;;;;;24.45;48.00;100940.91;4922578;28;20575;-74
2022/07/13 06:58:26;;;;;;;5.53;2.40;;;;;;;24.52;47.71;100946.59;4927461;28;20504;-72
2022/07/13 07:00:53;;;;;;;6.38;2.92;;;;;;;24.26;47.98;100947.25;4917372;28;20893;-72
2022/07/13 07:03:19;;;;;;;5.47;2.50;;;;;;;24.14;47.45;100948.38;4916988;28;20064;-73
2022/07/13 07:05:47;;;;;;;6.03;2.75;;;;;;;24.02;47.87;100945.00;4921911;28;20056;-72
2022/07/13 07:08:13;;;;;;;5.35;2.65;;;;;;;24.05;48.74;100951.97;4917892;28;20126;-73
2022/07/13 07:10:41;;;;;;;8.02;2.55;;;;;;;24.27;48.37;100948.94;4921790;29;20128;-73
2022/07/13 07:13:08;;;;;;;6.80;2.40;;;;;;;24.53;46.94;100938.34;4925163;28;20063;-78
2022/07/13 07:15:35;;;;;;;3.63;2.22;;;;;;;24.88;46.39;100940.28;4924049;28;20048;-74
2022/07/13 07:18:03;;;;;;;2.08;1.60;;;;;;;25.18;45.34;100934.56;4921233;28;20059;-74
2022/07/13 07:20:35;;;;;;;5.30;2.08;;;;;;;25.21;44.99;100938.84;4921911;28;20062;-72
2022/07/13 07:23:02;;;;;;;6.05;2.10;;;;;;;;;;4922744;28;20055;-73
2022/07/13 07:25:28;;;;;;;5.95;2.03;;;;;;;24.67;44.24;100940.56;4924649;29;20052;-75
2022/07/13 07:27:55;;;;;;;2.90;1.90;;;;;;;24.27;45.07;100926.44;4923883;29;20099;-72
2022/07/13 07:30:22;;;;;;;4.20;1.80;;;;;;;24.14;46.24;100948.38;4924109;28;20067;-72
2022/07/13 07:32:49;;;;;;;7.90;2.60;;;;;;;24.25;46.40;100944.69;4925261;29;20062;-74
2022/07/13 07:35:16;;;;;;;3.67;2.08;;;;;;;24.38;45.76;100950.66;4917718;28;20708;-74
2022/07/13 07:37:44;;;;;;;5.00;2.30;;;;;;;24.42;46.24;100952.03;4919225;28;20054;-71
2022/07/13 07:40:11;;;;;;;3.80;2.20;;;;;;;24.48;45.37;100925.25;4932137;28;20052;-73
2022/07/13 07:42:38;;;;;;;2.55;1.77;;;;;;;24.98;44.60;100946.56;4931127;28;20060;-72
2022/07/13 07:45:06;;;;;;;5.03;1.90;;;;;;;25.77;43.74;100940.44;4931556;28;20048;-72
2022/07/13 07:47:33;;;;;;;4.18;2.10;;;;;;;25.99;42.57;100931.75;4930823;28;20166;-74
2022/07/13 07:50:00;;;;;;;6.07;2.05;;;;;;;26.03;42.55;100933.16;4930562;29;20083;-73
2022/07/13 07:52:27;;;;;;;4.10;1.90;;;;;;;26.01;42.89;100937.88;4931164;28;20527;-72
2022/07/13 07:55:13;;;;;;;5.47;2.05;;;;;;;26.06;42.31;100934.72;4932256;28;20047;-72
2022/07/13 07:57:46;;;;;;;6.57;1.90;;;;;;;26.00;42.07;100930.75;4931584;28;20062;-72
2022/07/13 08:00:14;;;;;;;4.18;1.88;;;;;;;25.98;41.90;100931.91;4930208;28;20078;-73
2022/07/13 08:02:43;;;;;;;4.78;2.13;;;;;;;26.00;42.38;100930.75;4931278;28;20121;-73
2022/07/13 08:05:11;;;;;;;;;;;;;;;25.91;43.16;100933.59;4933292;28;20052;-75
2022/07/13 08:07:42;;;;;;;6.45;2.08;;;;;;;25.71;42.68;100930.19;4932173;28;20001;-75
2022/07/13 08:10:13;;;;;;;9.88;2.63;;;;;;;25.45;42.85;100932.81;4933645;28;20060;-74
2022/07/13 08:12:58;;;;;;;3.85;1.75;;;;;;;25.34;43.13;100931.16;4934293;28;20047;-74
2022/07/13 08:15:26;;;;;;;3.33;2.05;;;;;;;25.44;43.60;100929.25;4931861;29;20048;-77
2022/07/13 08:17:53;;;;;;;4.65;2.13;;;;;;;25.57;43.33;100923.44;4932215;28;20508;-74
2022/07/13 08:20:20;;;;;;;5.68;2.10;;;;;;;25.60;43.08;100935.84;4932399;28;20059;-73
2022/07/13 08:22:52;;;;;;;6.85;1.95;;;;;;;25.66;41.64;100933.38;4932127;28;20481;-74
2022/07/13 08:25:20;;;;;;;5.35;1.83;;;;;;;25.69;42.30;100937.63;4931027;28;20051;-74
2022/07/13 08:27:46;;;;;;;5.03;1.60;;;;;;;25.88;41.56;100931.19;4932692;28;20048;-74
2022/07/13 08:30:13;;;;;;;4.13;1.52;;;;;;;26.18;41.35;100931.56;4932705;28;20830;-73
2022/07/13 08:32:41;;;;;;;5.60;1.80;;;;;;;26.53;40.41;100932.47;4931172;28;20555;-73
2022/07/13 08:40:42;;;;;;;2.45;1.40;;;;;;;27.44;37.80;100922.59;4932692;28;20055;-73
2022/07/13 08:43:10;;;;;;;2.17;1.40;;;;;;;27.47;37.85;100926.84;4932375;28;20066;-74
2022/07/13 08:45:37;;;;;;;4.43;1.73;;;;;;;27.15;38.68;100923.06;4932153;28;20440;-74
2022/07/13 08:48:12;;;;;;;3.85;1.63;;;;;;;26.96;39.15;100912.47;4931904;28;20063;-74
2022/07/13 08:50:39;;;;;;;4.75;1.48;;;;;;;27.11;38.50;100913.53;4931472;28;20067;-73
2022/07/13 08:53:06;;;;;;;5.07;1.60;;;;;;;27.50;38.25;100921.94;4931836;28;20396;-73
2022/07/13 08:55:35;;;;;;;3.53;1.60;;;;;;;27.52;37.87;100919.06;4930757;28;20532;-73
2022/07/13 08:58:02;;;;;;;4.15;1.63;;;;;;;27.36;39.28;100908.16;4931610;28;20047;-75
2022/07/13 09:00:29;;;;;;;6.30;1.45;;;;;;;27.55;38.25;100915.97;4930932;28;20059;-72
2022/07/13 09:02:57;;;;;;;3.47;1.55;;;;;;;27.53;38.27;100921.59;4931802;28;20051;-75
2022/07/13 09:05:25;;;;;;;3.38;1.67;;;;;;;27.30;38.21;100898.78;4931341;28;20512;-73
2022/07/13 09:08:05;;;;;;;5.25;1.50;;;;;;;27.24;38.68;100916.59;4931125;28;20039;-73
2022/07/13 09:10:51;;;;;;;3.50;1.48;;;;;;;27.22;38.95;100920.53;4931017;28;20054;-75
2022/07/13 09:13:40;;;;;;;4.90;1.40;;;;;;;27.32;38.65;100918.50;4931698;28;20126;-75
2022/07/13 09:16:21;;;;;;;5.20;1.77;;;;;;;27.38;39.45;100914.28;4923597;29;20047;-73
2022/07/13 09:18:59;;;;;;;4.05;1.77;;;;;;;27.51;38.78;100907.31;4924326;28;20048;-74
2022/07/13 09:21:30;;;;;;;5.35;1.88;;;;;;;27.67;38.70;100892.03;4930995;28;20059;-74
2022/07/13 09:24:01;;;;;;;5.55;1.67;;;;;;;27.87;38.42;100901.53;4931846;28;20643;-73
2022/07/13 09:26:42;;;;;;;4.38;1.92;;;;;;;28.04;38.17;100896.91;4933177;28;20428;-75
2022/07/13 09:29:11;;;;;;;2.72;1.33;;;;;;;28.26;38.01;100883.47;4931134;28;20051;-73
2022/07/13 09:31:55;;;;;;;4.32;1.42;;;;;;;28.14;37.72;100887.56;4931510;28;20062;-77
2022/07/13 09:34:50;;;;;;;4.78;1.75;;;;;;;28.20;37.83;100886.88;4929184;28;20068;-74
2022/07/13 09:37:30;;;;;;;5.25;2.03;;;;;;;28.07;37.63;100889.25;4931420;28;20071;-76
2022/07/13 09:40:11;;;;;;;4.85;1.63;;;;;;;27.93;38.33;100884.53;4930980;28;20420;-74
2022/07/13 09:42:41;;;;;;;2.08;1.20;;;;;;;28.01;38.86;100884.53;4930728;28;20119;-74
2022/07/13 09:48:00;;;;;;;4.30;1.33;;;;;;;27.72;38.29;100889.66;4930423;28;20122;-73
2022/07/13 09:50:40;;;;;;;5.55;1.48;;;;;;;27.75;38.73;100892.88;4934510;28;20054;-73
2022/07/13 09:53:45;;;;;;;9.05;1.80;;;;;;;27.86;39.02;100892.53;4930860;28;20122;-75
2022/07/13 09:56:12;;;;;;;3.90;1.40;;;;;;;27.70;37.38;100887.13;4905487;29;20056;-74
2022/07/13 09:58:40;;;;;;;2.67;1.38;;;;;;;27.71;38.18;100885.22;4910116;29;20052;-74
2022/07/13 10:01:08;;;;;;;2.65;1.10;;;;;;;27.76;36.77;100886.41;4910470;29;20060;-74
2022/07/13 10:03:35;;;;;;;1.08;1.00;;;;;;;27.82;37.57;100883.03;4934681;28;20082;-74
2022/07/13 10:06:05;;;;;;;2.53;1.20;;;;;;;28.08;37.09;100880.06;4934494;28;20054;-75
2022/07/13 10:08:32;;;;;;;2.72;1.23;;;;;;;28.42;36.41;100871.66;4924094;28;20063;-72
2022/07/13 10:10:59;;;;;;;3.88;1.42;;;;;;;28.87;35.56;100879.16;4934642;28;20047;-75
2022/07/13 10:13:29;;;;;;;1.20;0.90;;;;;;;28.92;35.00;100876.75;4934742;28;20119;-74
2022/07/13 10:15:57;;;;;;;2.28;1.25;;;;;;;29.11;33.79;100875.44;4934628;28;20472;-74
2022/07/13 10:18:29;;;;;;;1.25;0.90;;;;;;;29.13;33.31;100861.59;4933324;28;20059;-75
2022/07/13 10:21:15;;;;;;;3.75;1.00;;;;;;;28.99;34.75;100855.03;4934877;28;20046;-73
2022/07/13 10:23:42;;;;;;;1.92;1.25;;;;;;;29.34;33.84;100872.69;4929009;28;20099;-74
2022/07/13 10:26:19;;;;;;;2.22;1.00;;;;;;;29.20;33.53;100851.66;4939094;28;20051;-74
2022/07/13 10:29:01;;;;;;;2.00;1.23;;;;;;;29.01;33.64;100866.63;4933764;28;20129;-74
2022/07/13 10:31:31;;;;;;;3.90;1.10;;;;;;;29.33;32.87;100873.72;4934134;28;20056;-73
2022/07/13 10:33:58;;;;;;;1.50;1.10;;;;;;;29.58;32.75;100878.00;4933928;28;20048;-74
2022/07/13 10:36:56;;;;;;;8.63;3.28;;;;;;;29.89;32.35;100879.78;4933925;28;20055;-74
2022/07/13 10:39:25;;;;;;;1.00;1.00;;;;;;;29.91;31.69;100880.41;4932176;28;20052;-75
2022/07/13 10:42:04;;;;;;;2.22;1.27;;;;;;;29.75;31.93;100856.03;4936642;28;20048;-75
2022/07/13 10:44:41;;;;;;;1.30;0.80;;;;;;;29.84;32.03;100874.00;4934878;28;20047;-74
2022/07/13 10:47:13;;;;;;;2.80;1.60;;;;;;;29.83;31.96;100867.69;4933969;28;20067;-74
2022/07/13 10:49:48;;;;;;;2.85;1.20;;;;;;;29.96;31.67;100869.78;4934235;28;20055;-75
2022/07/13 10:52:27;;;;;;;5.60;1.00;;;;;;;30.02;31.45;100869.09;4936651;28;20055;-74
2022/07/13 10:55:03;;;;;;;2.92;0.95;;;;;;;29.45;32.02;100865.97;4937899;28;20079;-75
2022/07/13 10:57:31;;;;;;;3.50;1.00;;;;;;;29.22;31.80;100868.69;4936289;28;20416;-74
2022/07/13 11:00:25;;;;;;;3.58;1.10;;;;;;;29.31;33.18;100848.50;4937599;28;20039;-74
2022/07/13 11:03:02;;;;;;;1.20;0.80;;;;;;;29.46;30.26;100870.41;4929680;28;20652;-74
2022/07/13 11:05:33;;;;;;;0.80;0.80;;;;;;;29.39;30.70;100864.84;4933766;28;20087;-73
2022/07/13 11:08:14;;;;;;;1.58;0.93;;;;;;;29.38;31.36;100854.94;4936896;28;20071;-74
2022/07/13 11:10:41;;;;;;;2.35;1.13;;;;;;;29.53;32.07;100857.75;4932407;28;20052;-73
2022/07/13 11:13:14;;;;;;;2.22;1.40;;;;;;;29.79;31.79;100854.59;4933815;28;20047;-74
2022/07/13 11:15:52;;;;;;;2.67;1.00;;;;;;;29.82;30.81;100856.97;4934053;28;20120;-73
2022/07/13 11:18:22;;;;;;;3.35;1.10;;;;;;;29.57;32.05;100848.16;4929948;28;20051;-76
2022/07/13 11:21:06;;;;;;;4.43;1.52;;;;;;;29.53;31.43;100850.41;4933901;28;20810;-73
2022/07/13 11:26:53;;;;;;;3.55;1.10;;;;;;;29.64;32.08;100844.50;4934030;28;20056;-73
2022/07/13 11:29:32;;;;;;;5.22;1.10;;;;;;;29.81;31.17;100838.88;4932763;28;20064;-73
2022/07/13 11:32:04;;;;;;;0.90;0.63;;;;;;;30.03;31.36;100816.16;4933548;28;20056;-73
2022/07/13 11:34:31;;;;;;;1.90;1.23;;;;;;;30.46;30.44;100825.34;4932649;28;20059;-75
2022/07/13 11:37:01;;;;;;;2.40;0.93;;;;;;;30.44;30.19;100821.09;4932822;28;20066;-75
2022/07/13 11:39:29;;;;;;;1.90;1.02;;;;;;;30.27;29.92;100804.94;4933113;28;20130;-74
2022/07/13 11:41:58;;;;;;;2.50;0.80;;;;;;;30.68;30.11;100807.16;4933295;28;20056;-73
2022/07/13 11:44:29;;;;;;;1.88;0.80;;;;;;;30.72;29.14;100797.50;4932597;28;20079;-73
2022/07/13 11:46:58;;;;;;;1.25;0.82;;;;;;;30.67;28.60;100742.59;4932797;28;20511;-73